Time;durP1;ratioP1;P1;durP2;ratioP2;P2;SDS_P1;SDS_P2;PMS_P1;PMS_P2;Temp;Humidity;BMP_temperature;BMP_pressure;BME280_temperature;BME280_humidity;BME280_pressure;Samples;Min_cycle;Max_cycle;Signal;HPM_P1;HPM_P2
2022/09/27 00:02:19;;;;;;;23.45;4.47;;;;;;;9.77;100.00;99347.31;5058792;28;20035;-78
2022/09/27 00:04:44;;;;;;;15.98;5.22;;;;;;;9.65;100.00;99338.50;5024580;28;20037;-78
2022/09/27 00:07:10;;;;;;;24.30;5.22;;;;;;;9.72;100.00;99348.66;5064679;28;20039;-78
2022/09/27 00:09:36;;;;;;;19.40;4.75;;;;;;;9.71;100.00;99349.66;5066762;28;20041;-79
2022/09/27 00:12:02;;;;;;;27.70;4.35;;;;;;;9.71;100.00;99352.41;5058084;28;20554;-79
2022/09/27 00:14:27;;;;;;;15.75;4.55;;;;;;;9.62;100.00;99353.31;5058793;28;20040;-79
2022/09/27 00:16:53;;;;;;;23.77;4.25;;;;;;;9.64;100.00;99356.78;5069480;28;20547;-79
2022/09/27 00:19:21;;;;;;;15.80;4.45;;;;;;;9.63;100.00;99363.25;5018553;28;20538;-78
2022/09/27 00:21:47;;;;;;;23.27;3.95;;;;;;;9.67;100.00;99359.16;5056088;28;20060;-78
2022/09/27 00:24:15;;;;;;;26.65;5.15;;;;;;;9.74;100.00;99356.72;5057830;28;20078;-78
2022/09/27 00:26:41;;;;;;;26.40;4.50;;;;;;;9.82;100.00;99356.81;5049552;28;20074;-78
2022/09/27 00:29:08;;;;;;;16.92;3.58;;;;;;;9.77;100.00;99366.47;5068472;28;20045;-79
2022/09/27 00:31:33;;;;;;;17.48;4.35;;;;;;;9.82;100.00;99369.59;5058351;28;20120;-79
2022/09/27 00:34:01;;;;;;;18.83;4.20;;;;;;;9.75;100.00;99364.72;5058829;28;20498;-79
2022/09/27 00:36:28;;;;;;;24.60;4.32;;;;;;;9.87;100.00;99373.59;5055383;28;20476;-79
2022/09/27 00:38:54;;;;;;;18.67;3.90;;;;;;;9.82;100.00;99378.66;5058287;28;20033;-79
2022/09/27 00:41:23;;;;;;;17.42;4.95;;;;;;;9.83;100.00;99382.25;5058794;28;20029;-80
2022/09/27 00:43:53;;;;;;;25.70;4.47;;;;;;;9.80;100.00;99382.56;5056815;28;20052;-79
2022/09/27 00:46:24;;;;;;;18.80;4.57;;;;;;;9.77;100.00;99363.72;5055968;28;20044;-79
2022/09/27 00:49:06;;;;;;;24.80;4.90;;;;;;;9.79;100.00;99369.91;5057469;28;20025;-79
2022/09/27 00:51:37;;;;;;;26.87;4.47;;;;;;;9.78;100.00;99368.19;5057820;28;20435;-78
2022/09/27 00:54:06;;;;;;;22.70;5.00;;;;;;;9.80;100.00;99367.00;5059620;28;20051;-77
2022/09/27 00:56:32;;;;;;;20.05;4.80;;;;;;;9.82;100.00;99367.75;5056481;28;20041;-78
2022/09/27 00:59:13;;;;;;;16.50;4.38;;;;;;;9.81;100.00;99376.94;5057834;28;20037;-78
2022/09/27 01:01:39;;;;;;;22.77;4.40;;;;;;;9.83;100.00;99376.78;5057047;28;20035;-79
2022/09/27 01:04:08;;;;;;;23.63;4.15;;;;;;;9.86;100.00;99380.06;5036726;28;20041;-79
2022/09/27 01:06:34;;;;;;;17.85;4.15;;;;;;;9.77;100.00;99377.41;5048576;28;20166;-79
2022/09/27 01:09:00;;;;;;;26.30;4.18;;;;;;;9.73;100.00;99377.69;5056532;28;20036;-78
2022/09/27 01:11:43;;;;;;;12.88;3.08;;;;;;;9.66;100.00;99379.34;5056304;28;20052;-78
2022/09/27 01:14:31;;;;;;;11.13;2.55;;;;;;;9.59;100.00;99385.56;5054330;28;20104;-78
2022/09/27 01:17:26;;;;;;;8.00;2.85;;;;;;;9.61;100.00;99386.25;5049226;28;20498;-78
2022/09/27 01:20:22;;;;;;;14.68;3.10;;;;;;;9.65;100.00;99383.06;5036119;28;20045;-77
2022/09/27 01:23:25;;;;;;;9.30;2.33;;;;;;;9.62;100.00;99390.72;5072410;28;20040;-78
2022/09/27 01:25:53;;;;;;;14.33;2.90;;;;;;;9.65;100.00;99394.00;5051481;28;20033;-79
2022/09/27 01:28:27;;;;;;;15.82;2.70;;;;;;;9.67;100.00;99397.44;5056289;28;20127;-79
2022/09/27 01:30:58;;;;;;;14.38;3.88;;;;;;;9.66;100.00;99394.88;5055829;28;20477;-79
2022/09/27 01:33:42;;;;;;;13.95;2.50;;;;;;;9.63;100.00;99392.44;5055455;28;20029;-79
2022/09/27 01:36:15;;;;;;;13.25;2.17;;;;;;;9.54;100.00;99370.47;5058777;28;20041;-78
2022/09/27 01:38:51;;;;;;;13.55;2.10;;;;;;;9.55;100.00;99360.41;5057007;28;20104;-79
2022/09/27 01:41:27;;;;;;;20.15;2.45;;;;;;;9.61;100.00;99384.41;5057987;28;20109;-79
2022/09/27 01:44:22;;;;;;;7.50;1.65;;;;;;;9.51;100.00;99392.63;5050482;28;20033;-78
2022/09/27 01:46:53;;;;;;;11.30;1.33;;;;;;;9.47;100.00;99385.75;5038664;28;20033;-78
2022/09/27 01:49:31;;;;;;;10.52;1.30;;;;;;;9.52;100.00;99396.22;5062925;28;20403;-79
2022/09/27 01:52:04;;;;;;;10.20;1.00;;;;;;;9.55;100.00;99395.94;5056609;28;20029;-79
2022/09/27 01:54:38;;;;;;;11.48;1.35;;;;;;;9.54;100.00;99399.66;5057082;28;20068;-79
2022/09/27 01:57:07;;;;;;;6.63;1.45;;;;;;;9.50;100.00;99407.31;5057666;28;20144;-79
2022/09/27 01:59:36;;;;;;;15.88;2.05;;;;;;;9.52;100.00;99409.88;5043985;28;20052;-79
2022/09/27 02:02:07;;;;;;;14.45;1.20;;;;;;;9.55;100.00;99413.16;5057459;28;20498;-79
2022/09/27 02:04:34;;;;;;;5.93;1.25;;;;;;;9.59;100.00;99419.19;5059933;28;20040;-79
2022/09/27 02:07:12;;;;;;;14.77;1.25;;;;;;;9.50;100.00;99415.50;5039912;28;20098;-79
2022/09/27 02:09:44;;;;;;;12.82;1.15;;;;;;;9.47;100.00;99404.88;5068170;28;20055;-78
2022/09/27 02:12:14;;;;;;;8.35;1.10;;;;;;;9.55;100.00;99418.63;5056917;28;20025;-79
2022/09/27 02:15:00;;;;;;;12.20;1.13;;;;;;;9.38;100.00;99420.28;5055729;28;20484;-79
2022/09/27 02:17:57;;;;;;;14.27;2.10;;;;;;;9.38;100.00;99412.09;5053868;28;20124;-79
2022/09/27 02:20:40;;;;;;;13.95;1.58;;;;;;;9.35;100.00;99409.66;5048197;28;20076;-79
2022/09/27 02:23:42;;;;;;;10.43;1.45;;;;;;;9.35;100.00;99404.19;5056543;28;20036;-79
2022/09/27 02:26:17;;;;;;;15.55;1.83;;;;;;;9.33;100.00;99416.28;5042925;28;20029;-77
2022/09/27 02:29:04;;;;;;;7.15;1.25;;;;;;;9.29;100.00;99421.19;5058042;28;20037;-77
2022/09/27 02:31:30;;;;;;;12.45;1.85;;;;;;;9.32;100.00;99411.84;5055474;28;20159;-77
2022/09/27 02:34:03;;;;;;;11.63;1.38;;;;;;;9.33;100.00;99406.22;5037844;28;20029;-78
2022/09/27 02:36:29;;;;;;;13.40;1.30;;;;;;;9.32;100.00;99415.41;5051853;28;20025;-77
2022/09/27 02:38:55;;;;;;;16.13;1.30;;;;;;;9.35;100.00;99426.06;5048764;28;20064;-77
2022/09/27 02:41:21;;;;;;;8.52;1.10;;;;;;;9.31;100.00;99416.44;5056186;28;20043;-78
2022/09/27 02:43:59;;;;;;;11.38;1.35;;;;;;;9.27;100.00;99419.63;5055577;28;20033;-78
2022/09/27 02:46:36;;;;;;;14.18;1.77;;;;;;;9.31;100.00;99430.09;5050823;28;20043;-78
2022/09/27 02:49:32;;;;;;;9.50;1.20;;;;;;;9.27;100.00;99431.41;5051729;28;20047;-78
2022/09/27 02:52:21;;;;;;;6.53;1.10;;;;;;;9.23;100.00;99424.53;5056291;28;20028;-79
2022/09/27 02:54:46;;;;;;;30.35;2.90;;;;;;;9.18;100.00;99421.34;5053358;28;20052;-79
2022/09/27 02:57:11;;;;;;;14.15;1.20;;;;;;;9.17;100.00;99422.38;5054829;28;20485;-78
2022/09/27 02:59:52;;;;;;;9.77;1.40;;;;;;;9.08;100.00;99424.09;5055188;28;20094;-78
2022/09/27 03:02:41;;;;;;;7.75;1.25;;;;;;;9.15;100.00;99424.38;5055475;28;20041;-78
2022/09/27 03:05:17;;;;;;;12.18;1.10;;;;;;;9.15;100.00;99428.00;5038274;28;20432;-78
2022/09/27 03:07:43;;;;;;;10.50;1.23;;;;;;;9.16;100.00;99426.13;5056152;28;20484;-79
2022/09/27 03:10:17;;;;;;;13.30;1.33;;;;;;;9.08;100.00;99428.72;5037242;28;20488;-79
2022/09/27 03:12:43;;;;;;;8.05;0.93;;;;;;;9.11;100.00;99437.47;5056841;28;20028;-78
2022/09/27 03:15:09;;;;;;;10.27;0.95;;;;;;;8.98;100.00;99437.78;5021765;28;20037;-79
2022/09/27 03:17:35;;;;;;;8.98;1.23;;;;;;;9.00;100.00;99429.44;5049323;28;20040;-79
2022/09/27 03:20:00;;;;;;;8.57;1.00;;;;;;;8.96;100.00;99426.16;5060392;28;20045;-79
2022/09/27 03:22:26;;;;;;;6.78;1.10;;;;;;;8.99;100.00;99427.75;5054491;28;20056;-78
2022/09/27 03:24:51;;;;;;;11.75;2.28;;;;;;;8.88;100.00;99430.63;5055755;28;20033;-79
2022/09/27 03:27:17;;;;;;;5.70;1.60;;;;;;;8.86;100.00;99422.59;5055683;28;20033;-78
2022/09/27 03:29:42;;;;;;;5.20;1.42;;;;;;;8.79;100.00;99432.38;5070543;28;20406;-77
2022/09/27 03:32:08;;;;;;;9.07;0.82;;;;;;;8.81;100.00;99431.22;5054546;28;20119;-78
2022/09/27 03:34:33;;;;;;;7.47;1.35;;;;;;;8.75;100.00;99430.94;5038291;28;20029;-78
2022/09/27 03:36:58;;;;;;;9.40;1.00;;;;;;;8.72;100.00;99445.72;5051347;28;20070;-78
2022/09/27 03:39:24;;;;;;;7.72;1.30;;;;;;;8.69;100.00;99442.41;5037396;28;20143;-78
2022/09/27 03:41:49;;;;;;;13.20;1.20;;;;;;;8.63;100.00;99438.41;5054181;28;20037;-79
2022/09/27 03:44:15;;;;;;;10.80;0.80;;;;;;;8.55;100.00;99432.81;5055126;28;20040;-78
2022/09/27 03:46:40;;;;;;;7.68;0.73;;;;;;;8.56;100.00;99443.59;5054435;28;20534;-79
2022/09/27 03:49:05;;;;;;;6.82;1.10;;;;;;;8.57;100.00;99436.25;5037490;28;20416;-78
2022/09/27 03:51:31;;;;;;;4.85;0.93;;;;;;;8.63;100.00;99443.88;5037327;28;20048;-78
2022/09/27 03:53:56;;;;;;;8.23;0.95;;;;;;;8.67;100.00;99441.72;5054031;28;20041;-78
2022/09/27 03:56:22;;;;;;;11.20;1.00;;;;;;;8.56;100.00;99445.44;5053767;28;20048;-78
2022/09/27 03:58:48;;;;;;;8.57;0.85;;;;;;;8.60;100.00;99441.44;5054272;28;20056;-80
2022/09/27 04:01:13;;;;;;;6.07;1.10;;;;;;;8.53;100.00;99443.03;5038139;28;20041;-78
2022/09/27 04:03:39;;;;;;;10.40;1.10;;;;;;;8.57;100.00;99441.72;5021254;28;20037;-79
2022/09/27 04:06:05;;;;;;;14.02;1.67;;;;;;;8.55;100.00;99444.59;5054877;28;20067;-79
2022/09/27 04:08:30;;;;;;;10.23;1.27;;;;;;;8.55;100.00;99443.72;5055415;28;20033;-79
2022/09/27 04:10:56;;;;;;;10.27;1.50;;;;;;;8.63;100.00;99447.44;5055648;28;20040;-79
2022/09/27 04:13:22;;;;;;;10.57;1.35;;;;;;;8.67;100.00;99452.63;5041274;28;20555;-78
2022/09/27 04:15:47;;;;;;;11.32;1.48;;;;;;;8.58;100.00;99452.47;5056606;28;20041;-79
2022/09/27 04:18:13;;;;;;;12.65;1.30;;;;;;;8.65;100.00;99469.13;5058421;28;20124;-78
2022/09/27 04:20:38;;;;;;;9.55;1.15;;;;;;;8.75;100.00;99469.13;5039222;28;20033;-79
2022/09/27 04:23:04;;;;;;;12.65;1.23;;;;;;;8.82;100.00;99479.34;5041270;28;20060;-79
2022/09/27 04:25:31;;;;;;;11.60;1.30;;;;;;;8.80;100.00;99472.28;5058883;28;20025;-78
2022/09/27 04:27:57;;;;;;;16.05;1.40;;;;;;;8.87;100.00;99469.84;5063175;28;20028;-79
2022/09/27 04:30:25;;;;;;;5.68;1.05;;;;;;;8.86;100.00;99476.31;5071938;28;20041;-79
2022/09/27 04:32:51;;;;;;;11.68;1.17;;;;;;;8.93;100.00;99472.00;5058661;28;20037;-80
2022/09/27 04:38:00;;;;;;;14.50;1.15;;;;;;;8.92;100.00;99464.81;5074605;28;20102;-79
2022/09/27 04:40:26;;;;;;;3.70;1.55;;;;;;;8.90;100.00;99453.19;5037443;28;20423;-80
2022/09/27 04:42:51;;;;;;;12.73;1.55;;;;;;;8.96;100.00;99452.59;5040238;28;20033;-79
2022/09/27 04:45:18;;;;;;;21.92;1.13;;;;;;;8.90;100.00;99448.56;5052549;28;20008;-78
2022/09/27 04:47:48;;;;;;;16.40;2.55;;;;;;;8.92;100.00;99437.50;5038406;28;20033;-78
2022/09/27 04:50:15;;;;;;;8.63;1.08;;;;;;;8.89;100.00;99419.56;5072853;28;20498;-79
2022/09/27 04:52:40;;;;;;;8.65;0.90;;;;;;;8.82;100.00;99423.88;5068151;28;20032;-80
2022/09/27 04:55:07;;;;;;;4.43;1.65;;;;;;;8.79;100.00;99408.66;5054725;28;20386;-79
2022/09/27 04:57:32;;;;;;;6.85;1.10;;;;;;;8.80;100.00;99415.84;5054320;28;20051;-79
2022/09/27 04:59:59;;;;;;;7.43;0.95;;;;;;;8.81;100.00;99414.84;5047016;28;20033;-78
2022/09/27 05:02:26;;;;;;;5.13;0.90;;;;;;;8.85;100.00;99423.59;5053405;28;20041;-79
2022/09/27 05:04:52;;;;;;;16.17;1.60;;;;;;;8.85;100.00;99439.97;5060793;28;20043;-78
2022/09/27 05:07:17;;;;;;;13.35;1.00;;;;;;;8.82;100.00;99434.78;5056638;28;20086;-78
2022/09/27 05:09:44;;;;;;;5.50;0.75;;;;;;;8.78;100.00;99439.69;5056540;28;20053;-79
2022/09/27 05:12:10;;;;;;;3.05;0.70;;;;;;;8.78;100.00;99441.56;5057530;28;20148;-79
2022/09/27 05:14:36;;;;;;;8.07;0.95;;;;;;;8.79;100.00;99446.03;5058629;28;20055;-78
2022/09/27 05:17:01;;;;;;;6.00;1.17;;;;;;;8.67;100.00;99452.63;5055558;28;20171;-78
2022/09/27 05:19:27;;;;;;;5.30;0.82;;;;;;;8.82;100.00;99464.81;5039249;28;20076;-79
2022/09/27 05:21:52;;;;;;;6.60;0.90;;;;;;;8.79;100.00;99463.25;5039625;28;20492;-80
2022/09/27 05:24:18;;;;;;;3.03;0.60;;;;;;;8.84;100.00;99465.56;5046587;28;20038;-79
2022/09/27 05:26:44;;;;;;;3.13;0.70;;;;;;;8.76;100.00;99469.00;5055958;28;20463;-79
2022/09/27 05:29:10;;;;;;;9.32;1.02;;;;;;;8.72;100.00;99473.00;5040651;28;20045;-79
2022/09/27 05:31:35;;;;;;;10.73;0.98;;;;;;;8.76;100.00;99479.06;5055660;28;20063;-80
2022/09/27 05:34:01;;;;;;;4.70;0.98;;;;;;;8.80;100.00;99473.16;5057027;28;20033;-79
2022/09/27 05:36:26;;;;;;;6.82;0.90;;;;;;;8.71;100.00;99482.22;5058497;28;20048;-80
2022/09/27 05:38:53;;;;;;;10.98;0.98;;;;;;;8.76;100.00;99490.81;5055117;28;20129;-80
2022/09/27 05:41:18;;;;;;;6.40;0.70;;;;;;;8.80;100.00;99492.25;5023395;28;20040;-79
2022/09/27 05:43:45;;;;;;;8.77;0.70;;;;;;;8.78;100.00;99494.25;5056124;28;20057;-80
2022/09/27 05:46:10;;;;;;;3.00;0.57;;;;;;;8.74;100.00;99495.56;5056771;28;20032;-79
2022/09/27 05:48:37;;;;;;;4.78;0.70;;;;;;;8.73;100.00;99498.44;5057463;28;20084;-79
2022/09/27 05:51:02;;;;;;;9.43;0.80;;;;;;;8.82;100.00;99492.09;5021829;28;20043;-79
2022/09/27 05:53:28;;;;;;;7.47;0.73;;;;;;;8.77;100.00;99497.13;5036126;28;20037;-79
2022/09/27 05:55:53;;;;;;;8.27;0.85;;;;;;;8.78;100.00;99493.41;5037131;28;20045;-79
2022/09/27 05:58:19;;;;;;;10.15;1.00;;;;;;;8.77;100.00;99494.41;5050996;28;20385;-79
2022/09/27 06:00:44;;;;;;;6.25;0.60;;;;;;;8.64;100.00;99486.50;5052453;28;20041;-80
2022/09/27 06:03:11;;;;;;;1.77;0.47;;;;;;;8.74;100.00;99483.78;5038646;28;20063;-79
2022/09/27 06:05:38;;;;;;;19.10;1.95;;;;;;;8.57;100.00;99482.63;5038033;28;20507;-79
2022/09/27 06:08:07;;;;;;;6.43;0.77;;;;;;;8.54;100.00;99478.31;5039342;28;20037;-79
2022/09/27 06:10:33;;;;;;;12.95;1.02;;;;;;;8.52;100.00;99466.69;5053794;28;20041;-80
2022/09/27 06:13:01;;;;;;;17.00;0.85;;;;;;;8.40;100.00;99478.72;5051095;28;20511;-79
2022/09/27 06:15:28;;;;;;;4.63;0.52;;;;;;;8.44;100.00;99472.00;5054333;28;20039;-81
2022/09/27 06:17:54;;;;;;;4.32;0.82;;;;;;;8.45;100.00;99481.91;5049762;28;20033;-80
2022/09/27 06:20:20;;;;;;;12.70;1.10;;;;;;;8.46;100.00;99475.44;5044735;28;20852;-81
2022/09/27 06:22:45;;;;;;;3.47;0.80;;;;;;;8.40;100.00;99479.56;5051350;28;20040;-81
2022/09/27 06:25:11;;;;;;;3.97;0.52;;;;;;;8.40;100.00;99467.81;5054550;28;20096;-81
2022/09/27 06:27:36;;;;;;;6.18;0.93;;;;;;;8.47;100.00;99463.53;5055451;28;20041;-80
2022/09/27 06:30:06;;;;;;;3.42;0.60;;;;;;;8.48;100.00;99478.03;5022825;28;20513;-79
2022/09/27 06:32:31;;;;;;;4.80;0.73;;;;;;;8.45;100.00;99477.31;5039581;28;20076;-79
2022/09/27 06:34:57;;;;;;;2.40;0.82;;;;;;;8.53;100.00;99483.94;5038252;28;20192;-80
2022/09/27 06:37:26;;;;;;;1.15;0.52;;;;;;;8.48;100.00;99486.22;5049126;28;20033;-80
2022/09/27 06:39:52;;;;;;;3.13;0.85;;;;;;;8.45;100.00;99484.63;5068726;28;20033;-79
2022/09/27 06:42:18;;;;;;;4.78;0.70;;;;;;;8.52;100.00;99491.25;5035500;28;20052;-81
2022/09/27 06:44:46;;;;;;;4.70;0.73;;;;;;;8.56;100.00;99495.41;5067523;28;20036;-81
2022/09/27 06:47:12;;;;;;;5.55;0.90;;;;;;;8.62;100.00;99491.25;5053787;28;20036;-80
2022/09/27 06:49:38;;;;;;;5.35;0.82;;;;;;;8.57;100.00;99502.59;5037611;28;20037;-80
2022/09/27 06:52:04;;;;;;;8.40;0.98;;;;;;;8.51;100.00;99497.72;5048017;28;20044;-80
2022/09/27 06:54:30;;;;;;;5.20;0.80;;;;;;;8.60;100.00;99507.75;5020558;28;20037;-81
2022/09/27 06:56:55;;;;;;;7.82;0.90;;;;;;;8.60;100.00;99513.22;5043597;28;20045;-81
2022/09/27 07:02:05;;;;;;;3.63;0.98;;;;;;;8.75;100.00;99524.56;5054660;28;20116;-82
2022/09/27 07:04:31;;;;;;;1.65;1.00;;;;;;;8.85;100.00;99523.72;5038254;28;20084;-80
2022/09/27 07:06:56;;;;;;;6.63;1.23;;;;;;;8.87;100.00;99524.44;5055222;28;20064;-80
2022/09/27 07:09:22;;;;;;;2.05;1.00;;;;;;;8.68;100.00;99528.88;5042171;28;20392;-80
2022/09/27 07:11:47;;;;;;;3.17;1.17;;;;;;;8.71;100.00;99530.47;5055425;28;20064;-78
2022/09/27 07:14:12;;;;;;;9.63;1.45;;;;;;;8.76;100.00;99539.94;5055651;28;20512;-79
2022/09/27 07:16:38;;;;;;;5.13;1.45;;;;;;;8.88;100.00;99539.81;5038482;28;20045;-82
2022/09/27 07:19:06;;;;;;;3.03;1.50;;;;;;;8.80;100.00;99529.59;5057454;28;20577;-80
2022/09/27 07:21:32;;;;;;;7.55;1.45;;;;;;;8.87;100.00;99524.44;5055369;28;20036;-79
2022/09/27 07:23:57;;;;;;;7.10;1.58;;;;;;;8.85;100.00;99530.03;5053855;28;20024;-79
2022/09/27 07:26:23;;;;;;;8.63;1.50;;;;;;;8.61;100.00;99536.78;5055794;28;20045;-80
2022/09/27 07:28:48;;;;;;;5.55;1.77;;;;;;;8.64;100.00;99531.03;5053209;28;20136;-80
2022/09/27 07:31:13;;;;;;;3.50;1.63;;;;;;;8.59;100.00;99533.34;5054978;28;20083;-79
2022/09/27 07:33:39;;;;;;;6.22;1.50;;;;;;;8.60;100.00;99523.28;5054191;28;20521;-80
2022/09/27 07:36:10;;;;;;;5.07;1.67;;;;;;;8.56;100.00;99530.00;5054813;28;20072;-80
2022/09/27 07:38:36;;;;;;;10.70;1.85;;;;;;;8.69;100.00;99543.38;5038252;28;20116;-82
2022/09/27 07:41:12;;;;;;;10.93;1.77;;;;;;;8.71;100.00;99539.53;5055146;28;20068;-80
2022/09/27 07:43:37;;;;;;;9.18;1.63;;;;;;;8.71;100.00;99542.25;5054560;28;20082;-80
2022/09/27 07:46:02;;;;;;;9.35;1.77;;;;;;;8.82;100.00;99549.41;5039828;28;20037;-80
2022/09/27 07:48:28;;;;;;;5.40;1.77;;;;;;;8.93;100.00;99554.75;5059464;28;20119;-79
2022/09/27 07:50:54;;;;;;;9.52;2.13;;;;;;;8.86;100.00;99553.59;5059614;28;20120;-80
2022/09/27 07:53:19;;;;;;;8.63;1.83;;;;;;;8.83;100.00;99545.69;5048779;28;20033;-80
2022/09/27 07:55:52;;;;;;;5.90;2.20;;;;;;;8.97;100.00;99549.88;5052962;28;20048;-83
2022/09/27 07:58:18;;;;;;;8.73;2.13;;;;;;;8.88;100.00;99557.03;5055560;28;20022;-84
2022/09/27 08:00:44;;;;;;;5.25;2.47;;;;;;;8.91;100.00;99550.44;5058390;28;20074;-80
2022/09/27 08:03:14;;;;;;;3.50;2.50;;;;;;;8.96;100.00;99565.38;5048804;28;20179;-82
2022/09/27 08:05:41;;;;;;;8.02;3.08;;;;;;;8.99;100.00;99551.44;5042507;28;20032;-82
2022/09/27 08:08:08;;;;;;;4.80;2.83;;;;;;;9.09;100.00;99553.31;5046516;28;20025;-82
2022/09/27 08:10:34;;;;;;;7.88;3.13;;;;;;;9.04;100.00;99558.34;5055235;28;20037;-82
2022/09/27 08:13:02;;;;;;;10.13;4.07;;;;;;;9.05;100.00;99554.59;5041853;28;20025;-82
2022/09/27 08:15:28;;;;;;;6.32;3.50;;;;;;;9.16;100.00;99568.09;5051058;28;20029;-81
2022/09/27 08:17:54;;;;;;;8.93;4.45;;;;;;;9.09;100.00;99569.69;5047536;28;20037;-81
2022/09/27 08:20:19;;;;;;;9.32;4.35;;;;;;;9.17;100.00;99575.31;5027338;28;20037;-80
2022/09/27 08:22:45;;;;;;;7.10;4.13;;;;;;;9.24;100.00;99573.72;5039762;28;20037;-80
2022/09/27 08:25:11;;;;;;;10.93;5.13;;;;;;;9.26;100.00;99568.09;5047917;28;20033;-81
2022/09/27 08:27:36;;;;;;;10.55;5.00;;;;;;;9.32;100.00;99571.13;5041783;28;20531;-80
2022/09/27 08:30:02;;;;;;;11.63;5.18;;;;;;;9.36;100.00;99575.28;5036947;28;20038;-80
2022/09/27 08:32:29;;;;;;;13.80;4.88;;;;;;;9.40;100.00;99578.59;5039670;28;20037;-80
2022/09/27 08:34:55;;;;;;;11.85;5.20;;;;;;;9.35;100.00;99572.72;5057003;28;20045;-83
2022/09/27 08:37:20;;;;;;;10.88;4.68;;;;;;;9.50;100.00;99568.50;5036643;28;20549;-83
2022/09/27 08:39:46;;;;;;;11.70;5.05;;;;;;;9.54;100.00;99580.00;5012887;28;20033;-83
2022/09/27 08:42:33;;;;;;;10.32;4.85;;;;;;;9.54;100.00;99575.41;5051241;28;20064;-82
2022/09/27 08:45:12;;;;;;;12.68;4.90;;;;;;;9.70;100.00;99573.94;5054001;28;20034;-82
2022/09/27 08:47:44;;;;;;;15.48;5.90;;;;;;;9.68;100.00;99571.34;5046820;28;20022;-84
2022/09/27 08:50:18;;;;;;;12.95;6.50;;;;;;;9.72;100.00;99575.50;5053750;28;20025;-84
2022/09/27 08:53:10;;;;;;;12.50;5.18;;;;;;;9.69;100.00;99569.47;5040911;28;20052;-83
2022/09/27 08:55:42;;;;;;;13.00;4.60;;;;;;;9.67;100.00;99580.53;5056645;28;20041;-83
2022/09/27 08:58:22;;;;;;;9.35;4.10;;;;;;;9.61;100.00;99578.41;5055995;28;20075;-84
2022/09/27 09:00:50;;;;;;;7.90;4.60;;;;;;;9.59;100.00;99574.09;5051315;28;20067;-82
2022/09/27 09:03:19;;;;;;;10.82;5.78;;;;;;;9.62;100.00;99571.91;5051117;28;20120;-84
2022/09/27 09:06:01;;;;;;;8.80;5.82;;;;;;;9.66;100.00;99576.09;5038696;28;20056;-83
2022/09/27 09:08:43;;;;;;;11.13;5.53;;;;;;;9.67;100.00;99587.88;5064873;28;20093;-84
2022/09/27 09:14:41;;;;;;;8.23;4.68;;;;;;;9.62;100.00;99576.53;5048327;28;20060;-83
2022/09/27 09:17:37;;;;;;;14.55;6.32;;;;;;;9.70;100.00;99577.50;5058530;28;20067;-84
2022/09/27 09:20:25;;;;;;;12.07;5.82;;;;;;;9.87;100.00;99583.22;5057614;28;20111;-84
2022/09/27 09:22:54;;;;;;;12.48;6.32;;;;;;;9.77;100.00;99583.25;5057987;28;20060;-83
2022/09/27 09:25:42;;;;;;;19.77;7.75;;;;;;;9.63;100.00;99576.38;5061341;28;20480;-83
2022/09/27 09:28:40;;;;;;;18.25;7.95;;;;;;;9.60;100.00;99571.22;5056537;28;20032;-83
2022/09/27 09:31:46;;;;;;;19.15;8.00;;;;;;;9.69;100.00;99577.66;5037237;28;20045;-83
2022/09/27 09:34:19;;;;;;;20.02;9.63;;;;;;;9.83;100.00;99573.59;5037924;28;20512;-83
2022/09/27 09:37:09;;;;;;;17.38;9.60;;;;;;;9.81;100.00;99576.50;5053050;28;20037;-83
2022/09/27 09:39:43;;;;;;;23.27;11.30;;;;;;;9.80;100.00;99582.09;5058693;28;20120;-83
2022/09/27 09:42:18;;;;;;;20.83;11.52;;;;;;;9.88;100.00;99585.81;5058164;28;20080;-83
2022/09/27 09:44:53;;;;;;;21.20;11.32;;;;;;;10.06;100.00;99583.16;5057377;28;20032;-83
2022/09/27 09:47:39;;;;;;;23.83;12.35;;;;;;;10.11;100.00;99578.09;5039839;28;20038;-83
2022/09/27 09:50:17;;;;;;;23.95;12.65;;;;;;;9.77;100.00;99566.00;5058403;28;20035;-83
2022/09/27 09:52:53;;;;;;;22.05;12.30;;;;;;;9.89;100.00;99609.41;5042866;28;20033;-83
2022/09/27 09:55:27;;;;;;;27.23;12.07;;;;;;;10.06;100.00;99605.03;5061586;28;20135;-82
2022/09/27 09:58:19;;;;;;;24.63;12.98;;;;;;;10.15;100.00;99595.09;5062149;28;20465;-82
2022/09/27 10:00:46;;;;;;;19.13;10.75;;;;;;;10.15;100.00;99596.94;5039590;28;20037;-82
2022/09/27 10:03:12;;;;;;;18.92;11.15;;;;;;;10.02;100.00;99587.22;5043930;28;20052;-82
2022/09/27 10:05:37;;;;;;;20.95;9.77;;;;;;;9.93;100.00;99599.03;5060413;28;20048;-82
2022/09/27 10:08:11;;;;;;;19.88;10.77;;;;;;;10.04;100.00;99576.97;5043595;28;20029;-82
2022/09/27 10:10:37;;;;;;;29.58;12.10;;;;;;;10.21;100.00;99589.00;5039222;28;20029;-82
2022/09/27 10:13:03;;;;;;;19.70;11.43;;;;;;;10.09;100.00;99582.84;5036501;28;20095;-82
2022/09/27 10:15:29;;;;;;;26.88;12.43;;;;;;;10.11;100.00;99579.97;5051391;28;20096;-82
2022/09/27 10:17:57;;;;;;;28.23;12.07;;;;;;;10.08;100.00;99580.28;5043528;28;20112;-82
2022/09/27 10:20:37;;;;;;;25.80;11.93;;;;;;;10.02;100.00;99580.88;5062408;28;20095;-82
2022/09/27 10:23:12;;;;;;;25.80;12.23;;;;;;;9.97;100.00;99570.41;5062213;28;20039;-82
2022/09/27 10:25:59;;;;;;;25.38;14.00;;;;;;;10.17;100.00;99568.44;5056665;28;20029;-82
2022/09/27 10:28:37;;;;;;;21.02;12.57;;;;;;;10.09;100.00;99565.59;5043867;28;20047;-82
2022/09/27 10:31:15;;;;;;;24.35;12.70;;;;;;;9.97;100.00;99577.72;5057814;28;20025;-82
2022/09/27 10:33:55;;;;;;;25.70;14.25;;;;;;;10.11;100.00;99575.34;5041654;28;20029;-82
2022/09/27 10:36:28;;;;;;;27.75;14.75;;;;;;;10.10;100.00;99564.56;5057951;28;20021;-82
2022/09/27 10:38:56;;;;;;;26.63;13.65;;;;;;;10.27;100.00;99577.47;5056818;28;20036;-82
2022/09/27 10:41:38;;;;;;;22.77;10.98;;;;;;;10.18;100.00;99588.44;5073583;28;20048;-83
2022/09/27 10:44:31;;;;;;;17.27;9.38;;;;;;;10.18;100.00;99593.91;5040337;28;20112;-81
2022/09/27 10:46:59;;;;;;;15.35;8.25;;;;;;;10.20;100.00;99589.16;5050321;28;20545;-82
2022/09/27 10:49:37;;;;;;;11.45;6.75;;;;;;;10.15;100.00;99581.41;5061039;28;20052;-81
2022/09/27 10:52:17;;;;;;;10.90;6.55;;;;;;;10.22;100.00;99593.47;5056710;28;20060;-81
2022/09/27 10:54:55;;;;;;;14.50;6.70;;;;;;;10.10;100.00;99587.31;5058087;28;20029;-81
2022/09/27 10:57:23;;;;;;;14.80;6.55;;;;;;;9.96;100.00;99582.34;5058258;28;20029;-82
2022/09/27 11:00:05;;;;;;;9.68;6.47;;;;;;;10.00;100.00;99591.09;5040882;28;20029;-82
2022/09/27 11:02:34;;;;;;;10.07;5.30;;;;;;;10.05;100.00;99594.25;5037017;28;20037;-82
2022/09/27 11:05:28;;;;;;;10.18;4.95;;;;;;;10.00;100.00;99602.03;5057529;28;20037;-82
2022/09/27 11:08:19;;;;;;;13.43;4.68;;;;;;;9.98;100.00;99599.44;5057104;28;20041;-82
2022/09/27 11:11:15;;;;;;;7.25;2.80;;;;;;;10.00;100.00;99608.38;5069532;28;20071;-82
2022/09/27 11:13:56;;;;;;;10.57;2.50;;;;;;;10.00;100.00;99604.78;5058011;28;20111;-82
2022/09/27 11:16:29;;;;;;;22.88;3.33;;;;;;;10.07;100.00;99600.44;5041600;28;20037;-82
2022/09/27 11:19:06;;;;;;;5.82;2.70;;;;;;;9.90;100.00;99607.53;5040458;28;20488;-83
2022/09/27 11:22:13;;;;;;;6.80;2.38;;;;;;;10.07;100.00;99597.72;5060550;28;20025;-82
2022/09/27 11:25:20;;;;;;;5.15;2.28;;;;;;;10.11;100.00;99602.72;5041794;28;20029;-82
2022/09/27 11:28:11;;;;;;;5.43;1.73;;;;;;;10.27;100.00;99609.44;5027464;28;20442;-83
2022/09/27 11:31:02;;;;;;;7.78;1.83;;;;;;;10.37;100.00;99604.81;5060874;28;20469;-83
2022/09/27 11:33:35;;;;;;;3.65;1.45;;;;;;;10.43;100.00;99601.47;5061714;28;20056;-83
2022/09/27 11:36:33;;;;;;;2.80;1.00;;;;;;;10.24;100.00;99594.16;5061880;28;20037;-83
2022/09/27 11:39:14;;;;;;;5.50;1.00;;;;;;;10.41;100.00;99599.88;5045022;28;20033;-83
2022/09/27 11:42:16;;;;;;;7.18;1.00;;;;;;;10.51;100.00;99603.47;5066077;28;20025;-83
2022/09/27 11:44:44;;;;;;;2.92;1.00;;;;;;;10.45;100.00;99595.84;5042331;28;20698;-83
2022/09/27 11:47:16;;;;;;;1.52;0.80;;;;;;;10.34;100.00;99596.88;5051801;28;20037;-83
2022/09/27 11:50:00;;;;;;;1.00;0.50;;;;;;;10.20;100.00;99594.63;5044025;28;20029;-82
2022/09/27 11:52:35;;;;;;;2.75;0.60;;;;;;;10.38;100.00;99589.22;5062152;28;20109;-82
2022/09/27 11:55:42;;;;;;;1.77;0.70;;;;;;;10.44;100.00;99585.91;5044126;28;20033;-82
2022/09/27 11:58:36;;;;;;;2.03;0.90;;;;;;;10.51;100.00;99581.56;5075601;28;20044;-83